Time;durP1;ratioP1;P1;durP2;ratioP2;P2;SDS_P1;SDS_P2;PMS_P1;PMS_P2;Temp;Humidity;BMP_temperature;BMP_pressure;BME280_temperature;BME280_humidity;BME280_pressure;Samples;Min_cycle;Max_cycle;Signal;HPM_P1;HPM_P2
2024/04/23 00:01:48;;;;;;;;;;;12.10;66.90;;;;;;5246660;26;84699;-49
2024/04/23 00:04:13;;;;;;;;;;;12.10;67.00;;;;;;5245151;26;86036;-48
2024/04/23 00:06:39;;;;;;;;;;;12.10;67.00;;;;;;5248642;26;86609;-48
2024/04/23 00:09:05;;;;;;;;;;;12.10;67.00;;;;;;5241004;26;88310;-46
2024/04/23 00:11:30;;;;;;;;;;;12.10;67.00;;;;;;5254642;26;87703;-47
2024/04/23 00:13:57;;;;;;;;;;;12.10;67.00;;;;;;5247317;26;87033;-47
2024/04/23 00:16:22;;;;;;;;;;;12.10;66.90;;;;;;5247620;26;85496;-48
2024/04/23 00:18:48;;;;;;;;;;;12.10;66.90;;;;;;5261778;26;85754;-47
2024/04/23 00:21:14;;;;;;;;;;;12.10;66.90;;;;;;5247209;26;85491;-47
2024/04/23 00:23:40;;;;;;;;;;;12.10;67.00;;;;;;5256980;26;86072;-47
2024/04/23 00:26:05;;;;;;;;;;;12.00;66.90;;;;;;5255556;26;86176;-48
2024/04/23 00:28:31;;;;;;;;;;;12.00;67.00;;;;;;5248130;26;85432;-48
2024/04/23 00:30:56;;;;;;;;;;;12.00;66.90;;;;;;5239731;26;85400;-48
2024/04/23 00:33:22;;;;;;;;;;;12.00;66.80;;;;;;5264250;26;86910;-47
2024/04/23 00:35:47;;;;;;;;;;;12.00;66.90;;;;;;5244414;26;85646;-48
2024/04/23 00:38:13;;;;;;;;;;;12.00;66.90;;;;;;5251297;26;85303;-47
2024/04/23 00:40:39;;;;;;;;;;;12.00;66.90;;;;;;5266741;26;85245;-45
2024/04/23 00:43:04;;;;;;;;;;;12.00;66.90;;;;;;5235504;26;86876;-46
2024/04/23 00:45:36;;;;;;;;;;;12.00;67.00;;;;;;5253275;26;87024;-47
2024/04/23 00:48:03;;;;;;;;;;;12.00;66.90;;;;;;5258520;26;85264;-48
2024/04/23 00:50:28;;;;;;;;;;;12.00;67.00;;;;;;5238075;26;85573;-47
2024/04/23 00:52:54;;;;;;;;;;;12.00;67.00;;;;;;5253186;26;87084;-48
2024/04/23 00:55:21;;;;;;;;;;;12.00;67.00;;;;;;5246559;26;85598;-47
2024/04/23 00:57:47;;;;;;;;;;;12.00;66.90;;;;;;5245949;26;86327;-46
2024/04/23 01:00:12;;;;;;;;;;;12.00;66.90;;;;;;5260622;26;85718;-47
2024/04/23 01:02:38;;;;;;;;;;;12.00;67.10;;;;;;5244604;26;86320;-46
2024/04/23 01:05:04;;;;;;;;;;;11.90;67.00;;;;;;5242402;26;86148;-47
2024/04/23 01:07:29;;;;;;;;;;;11.90;67.00;;;;;;5262996;26;86827;-48
2024/04/23 01:09:55;;;;;;;;;;;11.90;67.00;;;;;;5234707;26;85920;-48
2024/04/23 01:12:21;;;;;;;;;;;11.90;67.10;;;;;;5256987;26;87065;-48
2024/04/23 01:14:47;;;;;;;;;;;12.00;67.10;;;;;;5252789;26;84673;-47
2024/04/23 01:17:14;;;;;;;;;;;12.00;67.10;;;;;;5242345;26;85925;-46
2024/04/23 01:19:42;;;;;;;;;;;11.90;67.10;;;;;;5259014;26;85790;-45
2024/04/23 01:22:22;;;;;;;;;;;11.90;67.20;;;;;;5245828;26;86766;-48
2024/04/23 01:25:06;;;;;;;;;;;11.90;66.90;;;;;;5241030;26;88022;-47
2024/04/23 01:27:32;;;;;;;;;;;11.90;67.00;;;;;;5258352;26;85337;-47
2024/04/23 01:29:58;;;;;;;;;;;11.90;67.10;;;;;;5234221;26;86638;-46
2024/04/23 01:32:25;;;;;;;;;;;11.90;67.10;;;;;;5253269;26;85846;-46
2024/04/23 01:34:51;;;;;;;;;;;11.90;67.10;;;;;;5242963;26;85408;-46
2024/04/23 01:37:17;;;;;;;;;;;11.90;67.10;;;;;;5242338;26;85213;-46
2024/04/23 01:39:43;;;;;;;;;;;11.90;67.20;;;;;;5256960;26;85663;-45
2024/04/23 01:42:09;;;;;;;;;;;11.90;67.20;;;;;;5240959;26;85244;-46
2024/04/23 01:44:35;;;;;;;;;;;11.90;67.80;;;;;;5252473;26;86528;-46
2024/04/23 01:47:00;;;;;;;;;;;11.90;67.10;;;;;;5248279;26;86621;-48
2024/04/23 01:49:26;;;;;;;;;;;11.80;67.20;;;;;;5238307;26;86112;-46
2024/04/23 01:51:52;;;;;;;;;;;11.80;67.30;;;;;;5247633;26;86077;-47
2024/04/23 01:54:18;;;;;;;;;;;11.90;67.20;;;;;;5260243;26;85608;-47
2024/04/23 01:56:44;;;;;;;;;;;11.90;67.10;;;;;;5235638;26;86586;-45
2024/04/23 01:59:10;;;;;;;;;;;11.80;67.10;;;;;;5248832;26;87385;-46
2024/04/23 02:01:38;;;;;;;;;;;11.80;67.10;;;;;;5255960;26;85522;-47
2024/04/23 02:04:05;;;;;;;;;;;11.90;67.30;;;;;;5238594;26;85573;-46
2024/04/23 02:06:31;;;;;;;;;;;11.80;67.20;;;;;;5254887;26;86980;-47
2024/04/23 02:08:58;;;;;;;;;;;11.80;67.20;;;;;;5234060;26;86670;-44
2024/04/23 02:11:24;;;;;;;;;;;11.80;67.10;;;;;;5237567;26;86634;-46
2024/04/23 02:13:50;;;;;;;;;;;11.90;67.20;;;;;;5257097;26;85805;-47
2024/04/23 02:16:16;;;;;;;;;;;11.80;67.40;;;;;;5241656;26;86785;-45
2024/04/23 02:18:41;;;;;;;;;;;11.80;67.30;;;;;;5247672;26;86988;-46
2024/04/23 02:21:07;;;;;;;;;;;11.80;67.30;;;;;;5257571;26;85270;-46
2024/04/23 02:23:32;;;;;;;;;;;11.80;67.30;;;;;;5245369;26;85320;-47
2024/04/23 02:25:58;;;;;;;;;;;11.80;67.40;;;;;;5261835;26;87201;-47
2024/04/23 02:28:23;;;;;;;;;;;11.70;67.40;;;;;;5243965;26;84675;-48
2024/04/23 02:30:49;;;;;;;;;;;11.70;67.30;;;;;;5251018;26;85946;-47
2024/04/23 02:33:15;;;;;;;;;;;11.80;67.30;;;;;;5252375;26;85453;-47
2024/04/23 02:35:40;;;;;;;;;;;11.70;67.30;;;;;;5234274;26;86258;-47
2024/04/23 02:38:06;;;;;;;;;;;11.70;67.40;;;;;;5248522;26;86766;-47
2024/04/23 02:40:31;;;;;;;;;;;11.70;68.10;;;;;;5257715;26;85359;-47
2024/04/23 02:42:57;;;;;;;;;;;11.70;67.40;;;;;;5233841;26;86732;-47
2024/04/23 02:45:22;;;;;;;;;;;11.70;67.40;;;;;;5255213;26;85802;-47
2024/04/23 02:47:48;;;;;;;;;;;11.70;67.40;;;;;;5252165;26;85393;-47
2024/04/23 02:50:14;;;;;;;;;;;11.70;67.40;;;;;;5242248;26;86625;-46
2024/04/23 02:52:39;;;;;;;;;;;11.70;67.40;;;;;;5258440;26;86315;-48
2024/04/23 02:55:05;;;;;;;;;;;11.70;67.40;;;;;;5237002;26;85963;-47
2024/04/23 02:57:30;;;;;;;;;;;11.70;67.40;;;;;;5242991;26;86202;-46
2024/04/23 02:59:56;;;;;;;;;;;11.70;67.40;;;;;;5244293;26;86782;-48
2024/04/23 03:02:22;;;;;;;;;;;11.70;67.60;;;;;;5242955;26;87336;-47
2024/04/23 03:04:47;;;;;;;;;;;11.70;67.60;;;;;;5245812;26;87030;-46
2024/04/23 03:07:13;;;;;;;;;;;11.70;67.60;;;;;;5261271;26;85965;-47
2024/04/23 03:09:38;;;;;;;;;;;11.70;67.60;;;;;;5241474;26;85887;-45
2024/04/23 03:12:04;;;;;;;;;;;11.70;67.50;;;;;;5248785;26;86945;-46
2024/04/23 03:14:29;;;;;;;;;;;11.70;67.60;;;;;;5262265;26;85355;-48
2024/04/23 03:16:55;;;;;;;;;;;11.60;67.50;;;;;;5238500;26;84999;-47
2024/04/23 03:19:21;;;;;;;;;;;11.60;67.60;;;;;;5252366;26;85383;-47
2024/04/23 03:21:50;;;;;;;;;;;11.60;67.70;;;;;;5257402;26;86669;-46
2024/04/23 03:24:16;;;;;;;;;;;11.60;67.60;;;;;;5243907;26;88047;-47
2024/04/23 03:26:41;;;;;;;;;;;11.60;67.50;;;;;;5260144;26;85384;-46
2024/04/23 03:29:07;;;;;;;;;;;11.60;67.60;;;;;;5247921;26;86573;-47
2024/04/23 03:31:32;;;;;;;;;;;11.70;68.10;;;;;;5248923;26;86847;-47
2024/04/23 03:33:58;;;;;;;;;;;11.70;67.70;;;;;;5259475;26;85781;-47
2024/04/23 03:36:23;;;;;;;;;;;11.70;67.80;;;;;;5240184;26;85734;-47
2024/04/23 03:38:49;;;;;;;;;;;11.70;67.80;;;;;;5261937;26;85452;-46
2024/04/23 03:41:14;;;;;;;;;;;11.60;67.90;;;;;;5250782;26;86338;-47
2024/04/23 03:43:40;;;;;;;;;;;11.60;67.80;;;;;;5242817;26;86873;-47
2024/04/23 03:46:06;;;;;;;;;;;11.60;67.80;;;;;;5256431;26;85781;-46
2024/04/23 03:48:31;;;;;;;;;;;11.60;67.80;;;;;;5255552;26;86961;-47
2024/04/23 03:50:57;;;;;;;;;;;11.60;67.80;;;;;;5240046;26;86023;-47
2024/04/23 03:53:22;;;;;;;;;;;11.60;67.80;;;;;;5254351;26;85324;-47
2024/04/23 03:55:48;;;;;;;;;;;11.60;67.80;;;;;;5255963;26;87217;-46
2024/04/23 03:58:14;;;;;;;;;;;11.60;67.90;;;;;;5247733;26;86158;-46
2024/04/23 04:00:39;;;;;;;;;;;11.60;67.90;;;;;;5257900;26;85359;-44
2024/04/23 04:06:06;;;;;;;;;;;11.60;67.90;;;;;;5260059;26;85277;-47
2024/04/23 04:08:33;;;;;;;;;;;11.60;67.80;;;;;;5254244;26;85932;-47
2024/04/23 04:10:58;;;;;;;;;;;11.60;67.90;;;;;;5243245;26;85861;-45
2024/04/23 04:13:24;;;;;;;;;;;11.50;67.90;;;;;;5252113;26;86655;-45
2024/04/23 04:15:50;;;;;;;;;;;11.50;68.00;;;;;;5246300;26;87785;-46
2024/04/23 04:18:16;;;;;;;;;;;11.50;68.00;;;;;;5241710;26;85340;-46
2024/04/23 04:20:41;;;;;;;;;;;11.60;67.90;;;;;;5261407;26;86352;-45
2024/04/23 04:23:07;;;;;;;;;;;11.60;68.00;;;;;;5235787;26;85830;-47
2024/04/23 04:25:32;;;;;;;;;;;11.50;67.90;;;;;;5242980;26;85419;-46
2024/04/23 04:27:58;;;;;;;;;;;11.50;67.90;;;;;;5242521;26;86707;-47
2024/04/23 04:30:24;;;;;;;;;;;11.50;67.70;;;;;;5241919;26;86331;-45
2024/04/23 04:32:49;;;;;;;;;;;11.50;68.00;;;;;;5255041;26;85441;-46
2024/04/23 04:35:15;;;;;;;;;;;11.50;68.00;;;;;;5235854;26;85323;-47
2024/04/23 04:37:40;;;;;;;;;;;11.50;68.00;;;;;;5241450;26;88338;-47
2024/04/23 04:40:06;;;;;;;;;;;11.50;68.10;;;;;;5248303;26;88503;-47
2024/04/23 04:42:32;;;;;;;;;;;11.50;68.00;;;;;;5232427;26;87262;-47
2024/04/23 04:44:57;;;;;;;;;;;11.50;67.90;;;;;;5237515;26;85402;-46
2024/04/23 04:47:23;;;;;;;;;;;11.50;68.00;;;;;;5248741;26;85337;-47
2024/04/23 04:49:48;;;;;;;;;;;11.50;68.10;;;;;;5241107;26;86314;-45
2024/04/23 04:52:14;;;;;;;;;;;11.50;68.10;;;;;;5248846;26;85336;-45
2024/04/23 04:54:40;;;;;;;;;;;11.50;68.10;;;;;;5247953;26;86356;-45
2024/04/23 04:57:05;;;;;;;;;;;11.50;68.10;;;;;;5240732;26;87151;-47
2024/04/23 04:59:31;;;;;;;;;;;11.50;68.10;;;;;;5255049;26;85531;-46
2024/04/23 05:01:56;;;;;;;;;;;11.50;68.10;;;;;;5245843;26;87012;-47
2024/04/23 05:04:22;;;;;;;;;;;11.50;68.10;;;;;;5244191;26;85349;-47
2024/04/23 05:06:47;;;;;;;;;;;11.50;68.10;;;;;;5246638;26;86305;-47
2024/04/23 05:09:13;;;;;;;;;;;11.40;68.10;;;;;;5248073;26;87055;-46
2024/04/23 05:11:39;;;;;;;;;;;11.50;68.10;;;;;;5243447;26;86158;-44
2024/04/23 05:14:05;;;;;;;;;;;11.40;68.10;;;;;;5243209;26;86737;-47
2024/04/23 05:16:31;;;;;;;;;;;11.40;68.10;;;;;;5239054;26;86074;-46
2024/04/23 05:18:57;;;;;;;;;;;11.40;68.10;;;;;;5248936;26;84548;-44
2024/04/23 05:21:23;;;;;;;;;;;11.40;68.10;;;;;;5264456;26;85594;-45
2024/04/23 05:23:48;;;;;;;;;;;11.50;68.10;;;;;;5234306;26;86990;-46
2024/04/23 05:26:14;;;;;;;;;;;11.40;67.90;;;;;;5246298;26;86293;-46
2024/04/23 05:28:39;;;;;;;;;;;11.40;68.10;;;;;;5257885;26;87173;-45
2024/04/23 05:33:49;;;;;;;;;;;11.50;68.20;;;;;;5242564;26;85362;-45
2024/04/23 05:36:14;;;;;;;;;;;11.40;68.10;;;;;;5230680;26;85716;-45
2024/04/23 05:38:41;;;;;;;;;;;11.40;68.10;;;;;;5244874;26;85303;-48
2024/04/23 05:41:07;;;;;;;;;;;11.40;68.10;;;;;;5264419;26;85896;-46
2024/04/23 05:43:32;;;;;;;;;;;11.40;68.10;;;;;;5245692;26;86315;-45
2024/04/23 05:45:58;;;;;;;;;;;11.40;68.20;;;;;;5248937;26;86003;-46
2024/04/23 05:48:42;;;;;;;;;;;11.40;68.20;;;;;;5256752;26;87197;-47
2024/04/23 05:51:26;;;;;;;;;;;11.40;68.10;;;;;;5241512;26;86662;-47
2024/04/23 05:54:10;;;;;;;;;;;11.40;68.20;;;;;;5242118;26;87691;-46
2024/04/23 05:56:36;;;;;;;;;;;11.40;68.20;;;;;;5233379;26;87025;-45
2024/04/23 05:59:01;;;;;;;;;;;11.40;68.10;;;;;;5242310;26;85972;-45
2024/04/23 06:01:27;;;;;;;;;;;11.40;68.20;;;;;;5245696;26;85901;-47
2024/04/23 06:03:52;;;;;;;;;;;11.40;68.20;;;;;;5243313;26;85909;-47
2024/04/23 06:06:18;;;;;;;;;;;11.40;68.30;;;;;;5246349;26;85642;-45
2024/04/23 06:08:43;;;;;;;;;;;11.40;68.30;;;;;;5246142;26;85087;-46
2024/04/23 06:11:09;;;;;;;;;;;11.40;68.20;;;;;;5239248;26;87650;-45
2024/04/23 06:13:36;;;;;;;;;;;11.40;68.30;;;;;;5242552;26;85685;-46
2024/04/23 06:16:07;;;;;;;;;;;11.40;68.20;;;;;;5243004;26;88144;-44
2024/04/23 06:18:33;;;;;;;;;;;11.30;68.40;;;;;;5243249;26;87151;-47
2024/04/23 06:20:58;;;;;;;;;;;11.30;68.30;;;;;;5236368;26;86611;-47
2024/04/23 06:23:27;;;;;;;;;;;11.40;68.30;;;;;;5234250;26;87246;-46
2024/04/23 06:25:52;;;;;;;;;;;11.40;68.30;;;;;;5245724;26;85372;-45
2024/04/23 06:28:18;;;;;;;;;;;11.40;68.20;;;;;;5253012;26;86904;-46
2024/04/23 06:30:44;;;;;;;;;;;11.40;68.40;;;;;;5237334;26;86404;-47
2024/04/23 06:33:09;;;;;;;;;;;11.30;68.40;;;;;;5247796;26;86784;-44
2024/04/23 06:35:35;;;;;;;;;;;11.40;68.30;;;;;;5263942;26;86920;-45
2024/04/23 06:38:00;;;;;;;;;;;11.40;68.40;;;;;;5231520;26;85407;-47
2024/04/23 06:40:26;;;;;;;;;;;11.40;68.30;;;;;;5238553;26;87179;-45
2024/04/23 06:42:51;;;;;;;;;;;11.40;68.20;;;;;;5233721;26;86506;-46
2024/04/23 06:45:18;;;;;;;;;;;11.40;68.30;;;;;;5248890;26;85664;-46
2024/04/23 06:47:43;;;;;;;;;;;11.40;68.40;;;;;;5246189;26;86642;-44
2024/04/23 06:50:09;;;;;;;;;;;11.30;68.30;;;;;;5247479;26;85680;-44
2024/04/23 06:52:34;;;;;;;;;;;11.30;68.40;;;;;;5255309;26;87428;-45
2024/04/23 06:55:02;;;;;;;;;;;11.30;68.30;;;;;;5240808;26;87338;-46
2024/04/23 06:57:27;;;;;;;;;;;11.40;68.30;;;;;;5238709;26;84465;-47
2024/04/23 06:59:53;;;;;;;;;;;11.30;68.40;;;;;;5240648;26;86249;-46
2024/04/23 07:02:18;;;;;;;;;;;11.30;68.30;;;;;;5236675;26;87139;-46
2024/04/23 07:04:44;;;;;;;;;;;11.30;68.30;;;;;;5243548;26;86630;-46
2024/04/23 07:07:10;;;;;;;;;;;11.30;68.20;;;;;;5251249;26;87458;-44
2024/04/23 07:09:35;;;;;;;;;;;11.40;68.40;;;;;;5233059;26;87005;-45
2024/04/23 07:12:01;;;;;;;;;;;11.30;68.40;;;;;;5246701;26;85458;-46
2024/04/23 07:14:26;;;;;;;;;;;11.30;68.40;;;;;;5252387;26;86616;-45
2024/04/23 07:16:52;;;;;;;;;;;11.40;68.40;;;;;;5234793;26;86540;-45
2024/04/23 07:19:17;;;;;;;;;;;11.30;68.30;;;;;;5235546;26;86250;-46
2024/04/23 07:21:43;;;;;;;;;;;11.30;68.20;;;;;;5248841;26;86134;-46
2024/04/23 07:24:08;;;;;;;;;;;11.40;68.50;;;;;;5233831;26;85417;-45
2024/04/23 07:26:34;;;;;;;;;;;11.30;68.50;;;;;;5246377;26;86391;-46
2024/04/23 07:29:00;;;;;;;;;;;11.30;68.50;;;;;;5231760;26;87945;-46
2024/04/23 07:31:25;;;;;;;;;;;11.30;68.40;;;;;;5253348;26;85278;-45
2024/04/23 07:33:51;;;;;;;;;;;11.30;68.50;;;;;;5242563;26;87056;-45
2024/04/23 07:36:16;;;;;;;;;;;11.40;68.60;;;;;;5244380;26;85450;-46
2024/04/23 07:38:42;;;;;;;;;;;11.30;68.50;;;;;;5239900;26;86380;-45
2024/04/23 07:41:07;;;;;;;;;;;11.30;68.70;;;;;;5252074;26;85336;-47
2024/04/23 07:43:33;;;;;;;;;;;11.30;68.60;;;;;;5243820;26;85202;-45
2024/04/23 07:45:58;;;;;;;;;;;11.30;68.70;;;;;;5242190;26;85168;-48
2024/04/23 07:48:25;;;;;;;;;;;11.30;68.80;;;;;;5238021;26;87200;-44
2024/04/23 07:50:50;;;;;;;;;;;11.30;68.70;;;;;;5232138;26;85548;-46
2024/04/23 07:53:16;;;;;;;;;;;11.30;68.70;;;;;;5252810;26;86674;-46
2024/04/23 07:55:41;;;;;;;;;;;11.30;68.80;;;;;;5239624;26;86055;-46
2024/04/23 07:58:07;;;;;;;;;;;11.30;68.80;;;;;;5240871;26;87582;-44
2024/04/23 08:00:32;;;;;;;;;;;11.30;68.70;;;;;;5261373;26;86156;-46
2024/04/23 08:02:59;;;;;;;;;;;11.30;68.80;;;;;;5249004;26;85391;-47
2024/04/23 08:05:24;;;;;;;;;;;11.30;68.90;;;;;;5242913;26;86831;-46
2024/04/23 08:07:50;;;;;;;;;;;11.30;68.90;;;;;;5240190;26;88015;-47
2024/04/23 08:10:17;;;;;;;;;;;11.30;68.90;;;;;;5241731;26;84662;-46
2024/04/23 08:12:47;;;;;;;;;;;11.30;68.80;;;;;;5250898;26;85592;-45
2024/04/23 08:15:13;;;;;;;;;;;11.30;68.90;;;;;;5248492;26;86524;-44
2024/04/23 08:17:38;;;;;;;;;;;11.30;68.80;;;;;;5234250;26;86952;-47
2024/04/23 08:20:04;;;;;;;;;;;11.30;68.80;;;;;;5252054;26;88997;-45
2024/04/23 08:22:30;;;;;;;;;;;11.30;68.80;;;;;;5258579;26;85563;-46
2024/04/23 08:24:56;;;;;;;;;;;11.30;68.70;;;;;;5234454;26;86607;-47
2024/04/23 08:27:21;;;;;;;;;;;11.30;68.80;;;;;;5256106;26;85933;-47
2024/04/23 08:29:47;;;;;;;;;;;11.30;68.60;;;;;;5253616;26;86115;-47
2024/04/23 08:32:13;;;;;;;;;;;11.30;68.70;;;;;;5239289;26;86003;-46
2024/04/23 08:34:39;;;;;;;;;;;11.30;68.80;;;;;;5244386;26;86217;-44
2024/04/23 08:37:08;;;;;;;;;;;11.30;68.90;;;;;;5232250;26;85296;-46
2024/04/23 08:39:34;;;;;;;;;;;11.30;68.70;;;;;;5248518;26;86956;-46
2024/04/23 08:42:00;;;;;;;;;;;11.30;68.80;;;;;;5244243;26;87530;-46
2024/04/23 08:44:29;;;;;;;;;;;11.30;68.90;;;;;;5236456;26;87566;-45
2024/04/23 08:46:54;;;;;;;;;;;11.30;68.90;;;;;;5252664;26;86072;-45
2024/04/23 08:49:20;;;;;;;;;;;11.30;68.80;;;;;;5239671;26;85586;-45
2024/04/23 08:51:46;;;;;;;;;;;11.30;68.90;;;;;;5250799;26;86525;-47
2024/04/23 08:54:12;;;;;;;;;;;11.30;68.90;;;;;;5247364;26;87025;-45
2024/04/23 08:56:43;;;;;;;;;;;11.30;68.90;;;;;;5240761;26;85676;-45
2024/04/23 08:59:09;;;;;;;;;;;11.30;68.70;;;;;;5246488;26;86011;-46
2024/04/23 09:01:38;;;;;;;;;;;11.30;68.80;;;;;;5242221;26;85478;-45
2024/04/23 09:04:05;;;;;;;;;;;11.30;68.80;;;;;;5226161;26;85977;-45
2024/04/23 09:06:30;;;;;;;;;;;11.30;68.90;;;;;;5246475;26;86524;-47
2024/04/23 09:08:59;;;;;;;;;;;11.30;68.90;;;;;;5250277;26;85174;-45
2024/04/23 09:11:27;;;;;;;;;;;11.30;68.80;;;;;;5237842;26;86068;-46
2024/04/23 09:13:54;;;;;;;;;;;11.30;68.80;;;;;;5242286;26;87084;-46
2024/04/23 09:16:19;;;;;;;;;;;11.30;68.90;;;;;;5240698;26;85302;-46
2024/04/23 09:18:45;;;;;;;;;;;11.30;69.10;;;;;;5245172;26;85420;-46
2024/04/23 09:21:10;;;;;;;;;;;11.30;69.00;;;;;;5274609;26;87593;-44
2024/04/23 09:23:36;;;;;;;;;;;11.30;69.20;;;;;;5248071;26;86585;-47
2024/04/23 09:26:06;;;;;;;;;;;11.30;69.00;;;;;;5239933;26;87041;-46
2024/04/23 09:28:33;;;;;;;;;;;11.30;69.10;;;;;;5251728;26;86026;-46
2024/04/23 09:30:59;;;;;;;;;;;11.30;69.00;;;;;;5236808;26;86664;-47
2024/04/23 09:33:26;;;;;;;;;;;11.30;69.10;;;;;;5241200;26;86752;-46
2024/04/23 09:36:02;;;;;;;;;;;11.30;69.10;;;;;;5246890;26;85382;-46
2024/04/23 09:38:34;;;;;;;;;;;11.30;69.20;;;;;;5240277;26;86404;-46
2024/04/23 09:41:01;;;;;;;;;;;11.30;69.00;;;;;;5251937;26;87238;-45
2024/04/23 09:43:26;;;;;;;;;;;11.20;69.20;;;;;;5236998;26;85385;-45
2024/04/23 09:45:52;;;;;;;;;;;11.30;69.10;;;;;;5253450;26;86271;-45
2024/04/23 09:48:27;;;;;;;;;;;11.20;69.10;;;;;;5260674;26;85577;-44
2024/04/23 09:51:02;;;;;;;;;;;11.30;69.10;;;;;;5239541;26;87001;-46
2024/04/23 09:53:31;;;;;;;;;;;11.30;69.20;;;;;;5239429;26;87066;-45
2024/04/23 09:56:01;;;;;;;;;;;11.20;69.20;;;;;;5254258;26;86310;-45
2024/04/23 09:58:26;;;;;;;;;;;11.20;69.20;;;;;;5245072;26;87768;-45
2024/04/23 10:00:55;;;;;;;;;;;11.20;69.20;;;;;;5241185;26;85980;-44
2024/04/23 10:03:23;;;;;;;;;;;11.20;69.20;;;;;;5243030;26;85505;-46
2024/04/23 10:05:50;;;;;;;;;;;11.30;69.30;;;;;;5248939;26;86916;-46
2024/04/23 10:08:20;;;;;;;;;;;11.20;69.20;;;;;;5251199;26;85692;-43
2024/04/23 10:10:48;;;;;;;;;;;11.30;69.10;;;;;;5238256;26;87057;-43
2024/04/23 10:13:15;;;;;;;;;;;11.30;69.10;;;;;;5249617;26;86236;-45
2024/04/23 10:15:53;;;;;;;;;;;11.30;68.90;;;;;;5248541;26;85293;-43
2024/04/23 10:18:24;;;;;;;;;;;11.30;68.80;;;;;;5240872;26;86650;-46
2024/04/23 10:20:51;;;;;;;;;;;11.30;68.80;;;;;;5241797;26;87271;-47
2024/04/23 10:23:18;;;;;;;;;;;11.30;68.80;;;;;;5245064;26;85324;-47
2024/04/23 10:25:46;;;;;;;;;;;11.30;68.80;;;;;;5239087;26;86854;-45
2024/04/23 10:28:12;;;;;;;;;;;11.30;68.70;;;;;;5252067;26;85431;-44
2024/04/23 10:30:38;;;;;;;;;;;11.30;68.80;;;;;;5237825;26;87417;-45
2024/04/23 10:33:04;;;;;;;;;;;11.30;68.90;;;;;;5241740;26;87054;-47
2024/04/23 10:35:30;;;;;;;;;;;11.30;69.10;;;;;;5264797;26;85307;-47
2024/04/23 10:37:57;;;;;;;;;;;11.30;69.50;;;;;;5226227;26;86711;-47
2024/04/23 10:40:23;;;;;;;;;;;11.20;69.60;;;;;;5244945;26;86443;-47
2024/04/23 10:42:48;;;;;;;;;;;11.20;69.80;;;;;;5257539;26;85423;-44
2024/04/23 10:45:14;;;;;;;;;;;11.30;69.60;;;;;;5243426;26;86209;-46
2024/04/23 10:47:49;;;;;;;;;;;11.20;69.80;;;;;;5247021;26;85658;-45
2024/04/23 10:50:23;;;;;;;;;;;11.30;70.00;;;;;;5232377;26;86691;-44
2024/04/23 10:52:48;;;;;;;;;;;11.30;70.00;;;;;;5251745;26;85713;-47
2024/04/23 10:55:17;;;;;;;;;;;11.30;69.60;;;;;;5266898;26;85403;-45
2024/04/23 10:57:43;;;;;;;;;;;11.30;69.90;;;;;;5241741;26;86860;-44
2024/04/23 11:00:10;;;;;;;;;;;11.30;69.90;;;;;;5244453;26;86888;-46
2024/04/23 11:02:36;;;;;;;;;;;11.30;69.60;;;;;;5239534;26;84609;-45
2024/04/23 11:05:02;;;;;;;;;;;11.30;69.70;;;;;;5231843;26;87483;-47
2024/04/23 11:07:27;;;;;;;;;;;11.30;69.70;;;;;;5247557;26;85863;-46
2024/04/23 11:10:00;;;;;;;;;;;11.30;69.80;;;;;;5245093;26;86251;-46
2024/04/23 11:12:26;;;;;;;;;;;11.30;69.80;;;;;;5240834;26;86887;-45
2024/04/23 11:14:52;;;;;;;;;;;11.30;70.00;;;;;;5249166;26;86139;-44
2024/04/23 11:17:18;;;;;;;;;;;11.30;70.10;;;;;;5230137;26;87054;-44
2024/04/23 11:19:47;;;;;;;;;;;11.30;70.30;;;;;;5245044;26;88549;-46
2024/04/23 11:22:13;;;;;;;;;;;11.30;70.30;;;;;;5240817;26;85273;-44
2024/04/23 11:24:44;;;;;;;;;;;11.30;70.50;;;;;;5245615;26;87646;-46
2024/04/23 11:27:14;;;;;;;;;;;11.30;70.20;;;;;;5239417;26;85075;-44
2024/04/23 11:29:43;;;;;;;;;;;11.30;70.60;;;;;;5245293;26;85784;-47
2024/04/23 11:32:09;;;;;;;;;;;11.30;70.40;;;;;;5248925;26;86900;-46
2024/04/23 11:34:35;;;;;;;;;;;11.40;70.30;;;;;;5243980;26;86598;-47
2024/04/23 11:37:00;;;;;;;;;;;11.40;70.20;;;;;;5229792;26;87492;-46
2024/04/23 11:39:26;;;;;;;;;;;11.40;70.20;;;;;;5249146;26;86892;-46
2024/04/23 11:41:54;;;;;;;;;;;11.40;70.30;;;;;;5261465;26;86622;-44
2024/04/23 11:44:20;;;;;;;;;;;11.40;70.20;;;;;;5244666;26;86818;-46
2024/04/23 11:46:49;;;;;;;;;;;11.40;70.10;;;;;;5236353;26;87389;-44
2024/04/23 11:49:18;;;;;;;;;;;11.40;70.20;;;;;;5242275;26;86265;-46
2024/04/23 11:51:43;;;;;;;;;;;11.30;70.10;;;;;;5246099;26;86657;-44
2024/04/23 11:54:09;;;;;;;;;;;11.40;70.70;;;;;;5253669;26;85286;-45
2024/04/23 11:56:35;;;;;;;;;;;11.40;70.20;;;;;;5243229;26;85400;-45
2024/04/23 11:59:01;;;;;;;;;;;11.40;70.30;;;;;;5242532;26;87383;-46
2024/04/23 12:01:28;;;;;;;;;;;11.40;70.20;;;;;;5242354;26;85242;-46
2024/04/23 12:03:54;;;;;;;;;;;11.40;70.00;;;;;;5246841;26;86296;-44
2024/04/23 12:06:21;;;;;;;;;;;11.40;70.10;;;;;;5249840;26;85738;-44
2024/04/23 12:08:46;;;;;;;;;;;11.40;70.20;;;;;;5247329;26;85819;-45
2024/04/23 12:11:12;;;;;;;;;;;11.40;70.20;;;;;;5239236;26;85363;-46
2024/04/23 12:13:38;;;;;;;;;;;11.40;70.10;;;;;;5256146;26;86841;-45
2024/04/23 12:16:04;;;;;;;;;;;11.40;70.30;;;;;;5245760;26;85540;-46
2024/04/23 12:18:30;;;;;;;;;;;11.40;70.20;;;;;;5234774;26;85871;-45
2024/04/23 12:20:55;;;;;;;;;;;11.40;70.00;;;;;;5252218;26;85423;-45
2024/04/23 12:23:21;;;;;;;;;;;11.40;70.50;;;;;;5242702;26;86639;-45
2024/04/23 12:25:46;;;;;;;;;;;11.40;70.40;;;;;;5249775;26;85673;-44
2024/04/23 12:28:12;;;;;;;;;;;11.40;70.30;;;;;;5253085;26;85536;-46
2024/04/23 12:30:39;;;;;;;;;;;11.40;70.30;;;;;;5233782;26;85602;-44
2024/04/23 12:33:11;;;;;;;;;;;11.40;70.40;;;;;;5251820;26;85777;-46
2024/04/23 12:35:37;;;;;;;;;;;11.40;70.20;;;;;;5240058;26;85542;-44
2024/04/23 12:38:04;;;;;;;;;;;11.40;70.20;;;;;;5236017;26;87222;-46
2024/04/23 12:40:30;;;;;;;;;;;11.40;70.50;;;;;;5245020;26;85029;-46
2024/04/23 12:42:57;;;;;;;;;;;11.40;70.50;;;;;;5236700;26;86136;-46
2024/04/23 12:45:23;;;;;;;;;;;11.40;70.80;;;;;;5243592;26;86976;-46
2024/04/23 12:47:49;;;;;;;;;;;11.40;70.70;;;;;;5240253;26;86378;-45
2024/04/23 12:50:14;;;;;;;;;;;11.40;70.90;;;;;;5237689;26;87650;-44
2024/04/23 12:52:40;;;;;;;;;;;11.40;71.10;;;;;;5251921;26;87209;-45
2024/04/23 12:55:05;;;;;;;;;;;11.40;70.90;;;;;;5251676;26;86423;-46
2024/04/23 12:57:31;;;;;;;;;;;11.40;71.00;;;;;;5245721;26;87310;-46
2024/04/23 12:59:56;;;;;;;;;;;11.40;70.80;;;;;;5246463;26;86315;-44
2024/04/23 13:02:22;;;;;;;;;;;11.40;70.70;;;;;;5256203;26;86582;-45
2024/04/23 13:04:48;;;;;;;;;;;11.40;70.70;;;;;;5243579;26;85012;-44
2024/04/23 13:07:13;;;;;;;;;;;11.40;70.70;;;;;;5249439;26;85545;-43
2024/04/23 13:09:39;;;;;;;;;;;11.40;70.50;;;;;;5250977;26;86523;-45
2024/04/23 13:12:09;;;;;;;;;;;11.40;70.40;;;;;;5246177;26;86659;-46
2024/04/23 13:14:38;;;;;;;;;;;11.40;70.70;;;;;;5243136;26;85406;-45
2024/04/23 13:17:04;;;;;;;;;;;11.40;70.60;;;;;;5237288;26;86827;-46
2024/04/23 13:19:29;;;;;;;;;;;11.40;70.90;;;;;;5243543;26;85299;-44
2024/04/23 13:21:56;;;;;;;;;;;11.40;70.80;;;;;;5249967;26;85137;-46
2024/04/23 13:24:22;;;;;;;;;;;11.40;70.60;;;;;;5233066;26;86784;-46
2024/04/23 13:26:48;;;;;;;;;;;11.50;70.70;;;;;;5250452;26;85540;-45
2024/04/23 13:29:14;;;;;;;;;;;11.50;70.70;;;;;;5246546;26;85338;-45
2024/04/23 13:31:39;;;;;;;;;;;11.40;70.60;;;;;;5239095;26;86285;-45
2024/04/23 13:34:07;;;;;;;;;;;11.40;70.60;;;;;;5248071;26;85332;-46
2024/04/23 13:36:32;;;;;;;;;;;11.40;70.60;;;;;;5237869;26;86987;-47
2024/04/23 13:38:58;;;;;;;;;;;11.40;70.70;;;;;;5247566;26;87065;-44
2024/04/23 13:41:23;;;;;;;;;;;11.40;70.90;;;;;;5240400;26;86022;-45
2024/04/23 13:43:49;;;;;;;;;;;11.40;70.70;;;;;;5240380;26;86246;-47
2024/04/23 13:46:15;;;;;;;;;;;11.40;70.80;;;;;;5248607;26;85379;-46
2024/04/23 13:48:41;;;;;;;;;;;11.40;70.60;;;;;;5259683;26;86388;-46
2024/04/23 13:51:06;;;;;;;;;;;11.40;70.50;;;;;;5242921;26;86871;-46
2024/04/23 13:53:32;;;;;;;;;;;11.40;70.70;;;;;;5252298;26;84615;-46
2024/04/23 13:56:02;;;;;;;;;;;11.40;70.50;;;;;;5235937;26;85786;-45
2024/04/23 13:58:29;;;;;;;;;;;11.40;70.70;;;;;;5235885;26;88646;-45
2024/04/23 14:00:54;;;;;;;;;;;11.40;70.60;;;;;;5247234;26;86299;-45
2024/04/23 14:03:21;;;;;;;;;;;11.40;70.40;;;;;;5236497;26;85760;-46
2024/04/23 14:05:47;;;;;;;;;;;11.40;70.40;;;;;;5245502;26;85348;-44
2024/04/23 14:08:12;;;;;;;;;;;11.40;70.60;;;;;;5259016;26;85576;-44
2024/04/23 14:10:38;;;;;;;;;;;11.40;70.70;;;;;;5234651;26;86944;-46
2024/04/23 14:13:03;;;;;;;;;;;11.40;70.50;;;;;;5245721;26;85714;-44
2024/04/23 14:15:29;;;;;;;;;;;11.50;70.60;;;;;;5252108;26;86323;-46
2024/04/23 14:17:55;;;;;;;;;;;11.40;70.40;;;;;;5232038;26;85127;-46